createdAt,value
2023-01-15T00:02:23.025Z,101161.28
2023-01-15T00:04:52.473Z,101166.72
2023-01-15T00:07:20.956Z,101164.75
2023-01-15T00:09:49.180Z,101165.22
2023-01-15T00:12:17.537Z,101150.59
2023-01-15T00:14:45.940Z,101161.31
2023-01-15T00:17:14.106Z,101160.03
2023-01-15T00:19:43.696Z,101164.63
2023-01-15T00:22:11.904Z,101152.44
2023-01-15T00:24:57.537Z,101154.69
2023-01-15T00:27:41.087Z,101153.53
2023-01-15T00:30:12.236Z,101150.91
2023-01-15T00:32:40.564Z,101149.47
2023-01-15T00:35:14.278Z,101154.91
2023-01-15T00:37:42.498Z,101152.13
2023-01-15T00:40:12.895Z,101155.25
2023-01-15T00:42:41.370Z,101151.97
2023-01-15T00:45:11.962Z,101150.91
2023-01-15T00:47:41.793Z,101142.88
2023-01-15T00:50:14.116Z,101150.44
2023-01-15T00:52:46.007Z,101148.25
2023-01-15T00:55:15.649Z,101149.16
2023-01-15T00:57:43.943Z,101147.75
2023-01-15T01:00:13.365Z,101145.38
2023-01-15T01:02:41.619Z,101147.59
2023-01-15T01:05:12.104Z,101146.38
2023-01-15T01:07:40.215Z,101145.41
2023-01-15T01:10:09.396Z,101141.50
2023-01-15T01:12:38.499Z,101138.31
2023-01-15T01:15:07.861Z,101136.84
2023-01-15T01:17:36.111Z,101131.53
2023-01-15T01:20:05.457Z,101135.41
2023-01-15T01:22:35.020Z,101122.72
2023-01-15T01:25:03.243Z,101129.78
2023-01-15T01:27:31.422Z,101131.66
2023-01-15T01:29:59.564Z,101141.06
2023-01-15T01:32:27.705Z,101130.41
2023-01-15T01:34:56.003Z,101128.25
2023-01-15T01:37:24.222Z,101132.16
2023-01-15T01:39:53.729Z,101143.94
2023-01-15T01:42:22.138Z,101138.09
2023-01-15T01:45:02.131Z,101133.72
2023-01-15T01:47:32.916Z,101129.38
2023-01-15T01:50:04.356Z,101134.09
2023-01-15T01:52:39.189Z,101125.94
2023-01-15T01:55:10.379Z,101125.47
2023-01-15T01:57:39.715Z,101131.09
2023-01-15T02:00:11.567Z,101133.50
2023-01-15T02:02:40.978Z,101133.66
2023-01-15T02:05:11.052Z,101134.22
2023-01-15T02:07:40.356Z,101129.06
2023-01-15T02:10:16.812Z,101137.09
2023-01-15T02:12:50.914Z,101136.50
2023-01-15T02:15:24.350Z,101137.31
2023-01-15T02:17:57.828Z,101136.75
2023-01-15T02:20:33.263Z,101131.69
2023-01-15T02:23:29.118Z,101126.72
2023-01-15T02:26:12.501Z,101131.44
2023-01-15T02:28:46.008Z,101143.75
2023-01-15T02:31:18.604Z,101140.31
2023-01-15T02:33:51.115Z,101133.41
2023-01-15T02:36:24.562Z,101133.78
2023-01-15T02:38:57.152Z,101126.38
2023-01-15T02:41:31.458Z,101121.25
2023-01-15T02:44:04.215Z,101118.13
2023-01-15T02:46:37.168Z,101123.41
2023-01-15T02:49:08.783Z,101119.84
2023-01-15T02:51:43.292Z,101119.84
2023-01-15T02:54:17.018Z,101122.25
2023-01-15T02:56:48.513Z,101128.72
2023-01-15T02:59:23.150Z,101128.25
2023-01-15T03:01:56.103Z,101131.44
2023-01-15T03:04:30.443Z,101132.81
2023-01-15T03:07:05.270Z,101122.13
2023-01-15T03:09:34.259Z,101116.50
2023-01-15T03:12:07.939Z,101115.72
2023-01-15T03:14:43.386Z,101114.09
2023-01-15T03:17:18.136Z,101117.78
2023-01-15T03:19:52.482Z,101118.38
2023-01-15T03:22:24.669Z,101108.59
2023-01-15T03:24:55.954Z,101112.03
2023-01-15T03:27:24.812Z,101116.28
2023-01-15T03:29:57.064Z,101114.09
2023-01-15T03:32:25.493Z,101120.09
2023-01-15T03:34:55.189Z,101109.75
2023-01-15T03:37:25.772Z,101120.41
2023-01-15T03:39:54.564Z,101121.81
2023-01-15T03:42:39.219Z,101114.56
2023-01-15T03:45:16.929Z,101121.81
2023-01-15T03:47:58.101Z,101124.91
2023-01-15T03:50:33.725Z,101125.00
2023-01-15T03:53:10.703Z,101125.72
2023-01-15T03:55:47.492Z,101126.03
2023-01-15T03:58:21.190Z,101130.88
2023-01-15T04:00:54.121Z,101128.22
2023-01-15T04:03:24.763Z,101130.75
2023-01-15T04:05:55.190Z,101133.88
2023-01-15T04:08:24.368Z,101131.22
2023-01-15T04:10:54.706Z,101132.59
2023-01-15T04:13:23.316Z,101142.03
2023-01-15T04:15:53.967Z,101140.53
2023-01-15T04:18:22.688Z,101139.97
2023-01-15T04:20:51.038Z,101138.56
2023-01-15T04:23:19.347Z,101143.84
2023-01-15T04:25:47.547Z,101147.44
2023-01-15T04:28:15.697Z,101143.66
2023-01-15T04:30:44.539Z,101143.06
2023-01-15T04:33:14.053Z,101138.38
2023-01-15T04:35:42.302Z,101128.22
2023-01-15T04:38:10.550Z,101130.44
2023-01-15T04:40:56.092Z,101133.50
2023-01-15T04:43:41.548Z,101126.88
2023-01-15T04:46:09.751Z,101135.56
2023-01-15T04:48:40.255Z,101131.81
2023-01-15T04:51:08.780Z,101130.44
2023-01-15T04:53:37.036Z,101140.19
2023-01-15T04:56:06.310Z,101144.09
2023-01-15T04:58:35.515Z,101143.41
2023-01-15T05:01:05.229Z,101150.16
2023-01-15T05:03:33.390Z,101151.97
2023-01-15T05:06:05.480Z,101159.47
2023-01-15T05:08:33.912Z,101156.34
2023-01-15T05:11:03.828Z,101162.69
2023-01-15T05:13:33.668Z,101158.75
2023-01-15T05:16:13.554Z,101164.94
2023-01-15T05:18:42.447Z,101166.22
2023-01-15T05:21:20.665Z,101160.38
2023-01-15T05:23:49.433Z,101170.81
2023-01-15T05:26:18.270Z,101172.63
2023-01-15T05:28:46.726Z,101175.94
2023-01-15T05:31:16.578Z,101175.84
2023-01-15T05:33:48.571Z,101182.28
2023-01-15T05:36:19.321Z,101176.84
2023-01-15T05:38:47.830Z,101177.88
2023-01-15T05:41:36.395Z,101175.38
2023-01-15T05:44:06.715Z,101177.97
2023-01-15T05:46:35.851Z,101173.69
2023-01-15T05:49:05.109Z,101174.28
2023-01-15T05:51:35.461Z,101177.94
2023-01-15T05:54:04.230Z,101179.31
2023-01-15T05:56:32.473Z,101177.66
2023-01-15T05:59:00.553Z,101178.09
2023-01-15T06:01:28.900Z,101185.56
2023-01-15T06:03:59.814Z,101183.81
2023-01-15T06:06:28.008Z,101180.94
2023-01-15T06:08:57.731Z,101183.38
2023-01-15T06:11:25.895Z,101183.38
2023-01-15T06:13:54.258Z,101183.03
2023-01-15T06:16:22.412Z,101183.72
2023-01-15T06:18:50.830Z,101188.25
2023-01-15T06:21:19.174Z,101188.44
2023-01-15T06:23:47.989Z,101185.94
2023-01-15T06:26:19.782Z,101187.56
2023-01-15T06:28:48.340Z,101181.94
2023-01-15T06:31:18.667Z,101181.28
2023-01-15T06:33:47.090Z,101172.00
2023-01-15T06:36:17.879Z,101174.75
2023-01-15T06:38:46.503Z,101174.50
2023-01-15T06:41:36.922Z,101179.38
2023-01-15T06:44:22.988Z,101186.28
2023-01-15T06:47:23.045Z,101181.22
2023-01-15T06:49:53.734Z,101176.53
2023-01-15T06:52:22.250Z,101177.44
2023-01-15T06:54:50.364Z,101180.88
2023-01-15T06:57:19.973Z,101178.09
2023-01-15T06:59:48.521Z,101173.03
2023-01-15T07:02:18.031Z,101184.06
2023-01-15T07:04:46.517Z,101179.09
2023-01-15T07:07:16.009Z,101181.00
2023-01-15T07:09:44.264Z,101179.25
2023-01-15T07:12:13.768Z,101180.03
2023-01-15T07:14:43.648Z,101183.28
2023-01-15T07:17:12.306Z,101185.09
2023-01-15T07:19:40.988Z,101192.97
2023-01-15T07:22:10.787Z,101183.16
2023-01-15T07:24:39.153Z,101185.47
2023-01-15T07:27:07.586Z,101189.84
2023-01-15T07:29:35.718Z,101186.34
2023-01-15T07:32:05.908Z,101186.69
2023-01-15T07:34:34.138Z,101183.84
2023-01-15T07:37:02.302Z,101182.22
2023-01-15T07:39:31.740Z,101182.56
2023-01-15T07:42:17.569Z,101179.00
2023-01-15T07:45:02.847Z,101180.44
2023-01-15T07:47:49.625Z,101189.88
2023-01-15T07:50:19.938Z,101187.84
2023-01-15T07:52:48.429Z,101188.09
2023-01-15T07:55:17.066Z,101190.50
2023-01-15T07:57:45.681Z,101188.00
2023-01-15T08:00:17.039Z,101193.63
2023-01-15T08:02:49.981Z,101190.44
2023-01-15T08:05:19.112Z,101183.06
2023-01-15T08:07:49.342Z,101185.00
2023-01-15T08:10:17.674Z,101179.44
2023-01-15T08:13:08.652Z,101187.47
2023-01-15T08:15:41.472Z,101180.59
2023-01-15T08:18:11.029Z,101181.78
2023-01-15T08:20:39.193Z,101183.72
2023-01-15T08:23:08.022Z,101178.34
2023-01-15T08:25:36.486Z,101180.72
2023-01-15T08:28:05.488Z,101184.72
2023-01-15T08:30:33.898Z,101180.94
2023-01-15T08:33:03.448Z,101177.91
2023-01-15T08:35:34.360Z,101185.16
2023-01-15T08:38:05.965Z,101182.56
2023-01-15T08:40:34.193Z,101179.91
2023-01-15T08:43:02.430Z,101185.47
2023-01-15T08:45:30.706Z,101181.63
2023-01-15T08:48:00.500Z,101172.84
2023-01-15T08:50:28.648Z,101171.44
2023-01-15T08:52:58.550Z,101165.94
2023-01-15T08:55:26.800Z,101181.28
2023-01-15T08:57:55.300Z,101174.13
2023-01-15T09:00:24.675Z,101168.44
2023-01-15T09:02:52.903Z,101170.06
2023-01-15T09:05:21.135Z,101173.38
2023-01-15T09:07:49.277Z,101171.00
2023-01-15T09:10:19.113Z,101155.47
2023-01-15T09:12:47.382Z,101157.63
2023-01-15T09:15:17.986Z,101163.72
2023-01-15T09:17:46.124Z,101157.53
2023-01-15T09:20:15.684Z,101143.88
2023-01-15T09:22:44.485Z,101153.50
2023-01-15T09:25:12.689Z,101151.88
2023-01-15T09:27:42.790Z,101134.91
2023-01-15T09:30:17.298Z,101143.00
2023-01-15T09:32:45.700Z,101139.94
2023-01-15T09:35:14.251Z,101133.72
2023-01-15T09:37:42.419Z,101132.50
2023-01-15T09:40:23.747Z,101129.22
2023-01-15T09:42:59.813Z,101134.53
2023-01-15T09:45:32.736Z,101135.16
2023-01-15T09:48:27.667Z,101132.66
2023-01-15T09:51:17.833Z,101131.19
2023-01-15T09:54:05.479Z,101133.22
2023-01-15T09:56:36.306Z,101121.56
2023-01-15T09:59:15.644Z,101122.28
2023-01-15T10:01:44.602Z,101122.16
2023-01-15T10:04:20.802Z,101116.56
2023-01-15T10:06:58.729Z,101106.13
2023-01-15T10:09:35.306Z,101105.16
2023-01-15T10:12:27.876Z,101107.69
2023-01-15T10:15:04.274Z,101106.81
2023-01-15T10:17:41.658Z,101096.19
2023-01-15T10:20:17.693Z,101093.63
2023-01-15T10:23:07.029Z,101093.13
2023-01-15T10:25:43.801Z,101083.59
2023-01-15T10:28:22.274Z,101078.16
2023-01-15T10:30:56.327Z,101067.59
2023-01-15T10:33:43.929Z,101068.41
2023-01-15T10:36:18.479Z,101064.00
2023-01-15T10:38:55.278Z,101059.13
2023-01-15T10:41:39.945Z,101058.53
2023-01-15T10:44:16.800Z,101059.22
2023-01-15T10:46:56.103Z,101057.47
2023-01-15T10:49:31.274Z,101051.69
2023-01-15T10:52:04.832Z,101047.72
2023-01-15T10:54:38.417Z,101055.00
2023-01-15T10:57:12.782Z,101044.44
2023-01-15T10:59:46.414Z,101041.88
2023-01-15T11:02:29.430Z,101037.34
2023-01-15T11:04:57.747Z,101028.59
2023-01-15T11:07:33.833Z,101034.06
2023-01-15T11:10:04.570Z,101032.66
2023-01-15T11:12:50.996Z,101037.25
2023-01-15T11:15:42.142Z,101036.38
2023-01-15T11:18:34.951Z,101044.56
2023-01-15T11:21:04.343Z,101029.72
2023-01-15T11:23:37.596Z,101031.53
2023-01-15T11:26:06.495Z,101026.84
2023-01-15T11:28:40.373Z,101022.81
2023-01-15T11:31:09.438Z,101022.50
2023-01-15T11:33:39.890Z,101019.38
2023-01-15T11:36:21.776Z,101011.81
2023-01-15T11:38:51.195Z,101017.25
2023-01-15T11:41:23.659Z,101013.91
2023-01-15T11:44:16.130Z,101015.19
2023-01-15T11:47:04.763Z,101012.94
2023-01-15T11:49:51.557Z,101002.34
2023-01-15T11:52:23.162Z,100999.53
2023-01-15T11:54:55.314Z,101002.53
2023-01-15T11:57:29.328Z,101000.78
2023-01-15T11:59:59.040Z,101002.25
2023-01-15T12:02:37.420Z,101003.06
2023-01-15T12:05:16.777Z,100998.81
2023-01-15T12:07:46.475Z,101000.91
2023-01-15T12:10:41.900Z,101000.53
2023-01-15T12:13:19.841Z,100995.81
2023-01-15T12:15:58.112Z,100989.91
2023-01-15T12:18:56.128Z,100992.94
2023-01-15T12:21:54.028Z,100982.31
2023-01-15T12:24:42.713Z,100983.84
2023-01-15T12:27:30.262Z,100980.66
2023-01-15T12:30:04.227Z,100984.81
2023-01-15T12:32:38.777Z,100976.19
2023-01-15T12:35:16.757Z,100981.56
2023-01-15T12:37:52.031Z,100985.28
2023-01-15T12:40:25.788Z,100985.72
2023-01-15T12:43:13.651Z,100991.03
2023-01-15T12:45:44.792Z,100985.97
2023-01-15T12:48:17.875Z,100987.34
2023-01-15T12:50:49.146Z,100978.59
2023-01-15T12:53:25.324Z,100980.91
2023-01-15T12:55:59.763Z,100980.06
2023-01-15T12:58:40.273Z,100982.38
2023-01-15T13:01:17.232Z,100979.94
2023-01-15T13:03:55.213Z,100976.44
2023-01-15T13:06:28.832Z,100980.00
2023-01-15T13:09:04.136Z,100979.75
2023-01-15T13:11:32.980Z,100972.50
2023-01-15T13:14:01.357Z,100971.75
2023-01-15T13:16:39.208Z,100967.59
2023-01-15T13:19:31.702Z,100966.00
2023-01-15T13:22:04.978Z,100975.06
2023-01-15T13:24:55.729Z,100964.16
2023-01-15T13:27:37.588Z,100959.47
2023-01-15T13:30:33.303Z,100963.69
2023-01-15T13:33:17.840Z,100957.41
2023-01-15T13:35:52.253Z,100957.66
2023-01-15T13:38:23.864Z,100954.22
2023-01-15T13:40:57.078Z,100953.94
2023-01-15T13:43:35.592Z,100959.25
2023-01-15T13:46:07.145Z,100952.56
2023-01-15T13:48:43.342Z,100947.41
2023-01-15T13:51:28.310Z,100952.97
2023-01-15T13:53:57.980Z,100955.38
2023-01-15T13:56:32.415Z,100955.88
2023-01-15T13:59:02.447Z,100947.16
2023-01-15T14:01:35.683Z,100954.09
2023-01-15T14:04:07.394Z,100947.25
2023-01-15T14:06:44.252Z,100942.56
2023-01-15T14:09:14.266Z,100948.19
2023-01-15T14:11:59.307Z,100940.19
2023-01-15T14:14:47.015Z,100936.75
2023-01-15T14:17:32.581Z,100942.59
2023-01-15T14:20:57.878Z,100940.72
2023-01-15T14:23:58.221Z,100937.31
2023-01-15T14:26:35.694Z,100933.75
2023-01-15T14:29:26.093Z,100929.66
2023-01-15T14:32:09.264Z,100922.78
2023-01-15T14:34:38.086Z,100924.59
2023-01-15T14:37:22.141Z,100935.38
2023-01-15T14:39:53.759Z,100927.00
2023-01-15T14:42:45.586Z,100915.97
2023-01-15T14:45:27.030Z,100923.50
2023-01-15T14:47:56.725Z,100921.97
2023-01-15T14:50:39.178Z,100918.81
2023-01-15T14:53:24.226Z,100929.84
2023-01-15T14:55:57.700Z,100922.00
2023-01-15T14:58:37.449Z,100916.78
2023-01-15T15:01:29.135Z,100923.00
2023-01-15T15:04:00.140Z,100915.97
2023-01-15T15:06:29.507Z,100915.41
2023-01-15T15:09:03.253Z,100914.72
2023-01-15T15:12:06.056Z,100913.81
2023-01-15T15:14:39.651Z,100913.00
2023-01-15T15:17:21.936Z,100909.91
2023-01-15T15:19:57.140Z,100907.44
2023-01-15T15:22:30.901Z,100907.47
2023-01-15T15:25:02.753Z,100916.19
2023-01-15T15:27:30.939Z,100910.34
2023-01-15T15:30:09.236Z,100913.38
2023-01-15T15:32:41.248Z,100913.25
2023-01-15T15:35:26.928Z,100908.06
2023-01-15T15:37:55.545Z,100916.19
2023-01-15T15:40:32.061Z,100910.72
2023-01-15T15:43:23.878Z,100909.56
2023-01-15T15:46:15.073Z,100908.38
2023-01-15T15:48:47.659Z,100913.94
2023-01-15T15:51:32.375Z,100921.88
2023-01-15T15:54:16.954Z,100918.44
2023-01-15T15:56:57.776Z,100921.03
2023-01-15T15:59:34.030Z,100913.22
2023-01-15T16:02:16.867Z,100917.63
2023-01-15T16:04:52.028Z,100905.63
2023-01-15T16:07:26.186Z,100908.94
2023-01-15T16:09:57.818Z,100908.56
2023-01-15T16:12:28.093Z,100907.69
2023-01-15T16:14:57.896Z,100911.22
2023-01-15T16:17:28.194Z,100901.97
2023-01-15T16:19:59.051Z,100907.69
2023-01-15T16:22:27.505Z,100906.53
2023-01-15T16:24:58.187Z,100903.66
2023-01-15T16:27:32.826Z,100900.88
2023-01-15T16:30:01.474Z,100904.81
2023-01-15T16:32:33.445Z,100902.72
2023-01-15T16:35:07.769Z,100911.16
2023-01-15T16:37:36.609Z,100905.78
2023-01-15T16:40:06.983Z,100903.75
2023-01-15T16:42:37.431Z,100908.09
2023-01-15T16:45:20.204Z,100903.63
2023-01-15T16:48:10.212Z,100901.59
2023-01-15T16:50:42.683Z,100901.97
2023-01-15T16:53:30.946Z,100907.03
2023-01-15T16:56:01.346Z,100908.69
2023-01-15T16:58:40.002Z,100903.88
2023-01-15T17:01:27.760Z,100900.00
2023-01-15T17:03:56.071Z,100901.78
2023-01-15T17:06:28.102Z,100903.09
2023-01-15T17:08:57.725Z,100907.66
2023-01-15T17:11:29.910Z,100901.66
2023-01-15T17:14:10.851Z,100905.19
2023-01-15T17:16:39.032Z,100895.84
2023-01-15T17:19:09.001Z,100905.75
2023-01-15T17:21:39.545Z,100908.50
2023-01-15T17:24:08.601Z,100898.25
2023-01-15T17:26:37.258Z,100895.44
2023-01-15T17:29:06.515Z,100897.63
2023-01-15T17:31:48.379Z,100896.09
2023-01-15T17:34:23.419Z,100893.38
2023-01-15T17:36:53.067Z,100887.63
2023-01-15T17:39:21.336Z,100893.81
2023-01-15T17:41:49.598Z,100886.13
2023-01-15T17:44:19.092Z,100891.97
2023-01-15T17:46:47.308Z,100891.53
2023-01-15T17:49:15.408Z,100890.78
2023-01-15T17:51:44.161Z,100891.47
2023-01-15T17:54:34.351Z,100894.59
2023-01-15T17:57:23.054Z,100896.22
2023-01-15T18:00:08.675Z,100888.47
2023-01-15T18:05:32.841Z,100888.03
2023-01-15T18:08:04.630Z,100893.09
2023-01-15T18:10:34.603Z,100891.78
2023-01-15T18:13:03.857Z,100892.13
2023-01-15T18:15:32.618Z,100898.38
2023-01-15T18:18:00.769Z,100895.25
2023-01-15T18:20:28.986Z,100890.56
2023-01-15T18:22:57.181Z,100893.34
2023-01-15T18:25:26.251Z,100900.63
2023-01-15T18:27:56.222Z,100887.31
2023-01-15T18:30:24.363Z,100896.81
2023-01-15T18:32:52.666Z,100892.59
2023-01-15T18:35:23.173Z,100890.81
2023-01-15T18:37:51.348Z,100887.03
2023-01-15T18:40:20.416Z,100884.63
2023-01-15T18:43:06.074Z,100881.66
2023-01-15T18:45:52.798Z,100887.19
2023-01-15T18:48:20.932Z,100882.34
2023-01-15T18:50:49.342Z,100873.63
2023-01-15T18:53:17.787Z,100877.75
2023-01-15T18:55:45.995Z,100878.81
2023-01-15T18:58:14.340Z,100876.25
2023-01-15T19:00:44.030Z,100875.53
2023-01-15T19:03:12.614Z,100864.63
2023-01-15T19:05:40.709Z,100869.84
2023-01-15T19:08:09.771Z,100856.91
2023-01-15T19:10:39.782Z,100864.84
2023-01-15T19:13:13.618Z,100853.72
2023-01-15T19:16:01.839Z,100851.25
2023-01-15T19:18:53.479Z,100851.06
2023-01-15T19:21:25.128Z,100848.44
2023-01-15T19:23:56.565Z,100841.31
2023-01-15T19:26:25.015Z,100842.34
2023-01-15T19:28:53.266Z,100851.63
2023-01-15T19:31:39.303Z,100857.75
2023-01-15T19:34:32.742Z,100849.78
2023-01-15T19:37:01.627Z,100851.41
2023-01-15T19:39:30.942Z,100832.50
2023-01-15T19:42:17.207Z,100828.34
2023-01-15T19:45:02.548Z,100832.63
2023-01-15T19:47:53.144Z,100832.09
2023-01-15T19:50:24.892Z,100827.03
2023-01-15T19:52:55.499Z,100831.56
2023-01-15T19:55:25.313Z,100827.25
2023-01-15T19:57:59.066Z,100814.53
2023-01-15T20:00:28.635Z,100819.59
2023-01-15T20:02:59.238Z,100824.66
2023-01-15T20:05:28.653Z,100824.19
2023-01-15T20:07:59.749Z,100827.16
2023-01-15T20:10:30.116Z,100822.09
2023-01-15T20:13:16.182Z,100819.69
2023-01-15T20:15:46.689Z,100819.69
2023-01-15T20:18:17.404Z,100814.38
2023-01-15T20:20:45.741Z,100809.63
2023-01-15T20:23:15.156Z,100815.78
2023-01-15T20:25:46.679Z,100815.50
2023-01-15T20:28:14.783Z,100820.84
2023-01-15T20:30:43.777Z,100824.28
2023-01-15T20:33:12.523Z,100820.03
2023-01-15T20:35:42.234Z,100814.19
2023-01-15T20:38:10.416Z,100816.03
2023-01-15T20:40:38.663Z,100810.16
2023-01-15T20:43:25.324Z,100810.69
2023-01-15T20:45:53.488Z,100807.25
2023-01-15T20:48:39.317Z,100809.06
2023-01-15T20:51:14.204Z,100818.06
2023-01-15T20:53:42.443Z,100803.75
2023-01-15T20:56:15.220Z,100812.25
2023-01-15T20:58:43.651Z,100808.19
2023-01-15T21:01:12.334Z,100805.28
2023-01-15T21:03:40.874Z,100807.41
2023-01-15T21:06:09.968Z,100810.28
2023-01-15T21:08:40.892Z,100801.34
2023-01-15T21:11:10.166Z,100799.97
2023-01-15T21:13:44.865Z,100793.88
2023-01-15T21:16:14.890Z,100801.81
2023-01-15T21:18:45.324Z,100799.44
2023-01-15T21:21:15.464Z,100798.41
2023-01-15T21:23:45.875Z,100808.28
2023-01-15T21:26:14.702Z,100801.34
2023-01-15T21:28:44.399Z,100797.44
2023-01-15T21:31:13.567Z,100787.84
2023-01-15T21:33:41.764Z,100790.53
2023-01-15T21:36:11.759Z,100784.13
2023-01-15T21:38:40.046Z,100780.72
2023-01-15T21:41:10.592Z,100782.03
2023-01-15T21:43:56.513Z,100778.84
2023-01-15T21:46:27.699Z,100771.91
2023-01-15T21:48:56.307Z,100760.19
2023-01-15T21:51:24.993Z,100759.16
2023-01-15T21:53:53.334Z,100755.16
2023-01-15T21:56:22.955Z,100756.50
2023-01-15T21:58:51.113Z,100757.00
2023-01-15T22:01:21.026Z,100747.72
2023-01-15T22:03:49.254Z,100747.19
2023-01-15T22:06:17.370Z,100749.56
2023-01-15T22:08:45.586Z,100744.25
2023-01-15T22:11:13.658Z,100746.38
2023-01-15T22:13:43.206Z,100744.53
2023-01-15T22:16:11.236Z,100733.66
2023-01-15T22:18:40.991Z,100733.88
2023-01-15T22:21:15.283Z,100736.28
2023-01-15T22:23:44.180Z,100734.69
2023-01-15T22:26:18.785Z,100727.75
2023-01-15T22:28:48.940Z,100720.56
2023-01-15T22:31:18.063Z,100723.50
2023-01-15T22:33:46.864Z,100720.34
2023-01-15T22:36:17.082Z,100711.03
2023-01-15T22:38:46.322Z,100717.94
2023-01-15T22:41:14.798Z,100711.53
2023-01-15T22:43:43.247Z,100710.75
2023-01-15T22:46:14.774Z,100705.69
2023-01-15T22:48:43.063Z,100698.78
2023-01-15T22:51:11.261Z,100699.34
2023-01-15T22:53:39.574Z,100693.47
2023-01-15T22:56:08.757Z,100699.06
2023-01-15T22:58:40.442Z,100696.13
2023-01-15T23:01:09.279Z,100689.72
2023-01-15T23:03:39.407Z,100676.41
2023-01-15T23:06:10.101Z,100670.28
2023-01-15T23:08:38.867Z,100663.66
2023-01-15T23:11:10.591Z,100675.09
2023-01-15T23:13:39.223Z,100667.66
2023-01-15T23:16:08.143Z,100657.78
2023-01-15T23:18:36.896Z,100654.03
2023-01-15T23:21:07.885Z,100658.81
2023-01-15T23:23:37.016Z,100659.63
2023-01-15T23:26:12.668Z,100650.31
2023-01-15T23:28:41.307Z,100647.66
2023-01-15T23:31:09.927Z,100647.88
2023-01-15T23:33:38.688Z,100637.25
2023-01-15T23:36:09.857Z,100627.41
2023-01-15T23:38:38.001Z,100622.38
2023-01-15T23:41:09.859Z,100630.63
2023-01-15T23:43:56.655Z,100629.31
2023-01-15T23:46:35.565Z,100629.34
2023-01-15T23:49:05.925Z,100628.50
2023-01-15T23:51:36.020Z,100633.03
2023-01-15T23:54:05.448Z,100631.41
2023-01-15T23:56:34.446Z,100626.38
2023-01-15T23:59:02.587Z,100624.78
